sensor_id;sensor_type;location;lat;lon;timestamp;P1;durP1;ratioP1;P2;durP2;ratioP2
22603;SDS011;11469;49.024;8.246;2024-01-15T00:00:32;93.25;;;30.33;;
22603;SDS011;11469;49.024;8.246;2024-01-15T00:02:58;95.18;;;30.15;;
22603;SDS011;11469;49.024;8.246;2024-01-15T00:05:23;95.85;;;30.67;;
22603;SDS011;11469;49.024;8.246;2024-01-15T00:07:48;94.22;;;30.08;;
22603;SDS011;11469;49.024;8.246;2024-01-15T00:10:14;93.95;;;31.60;;
22603;SDS011;11469;49.024;8.246;2024-01-15T00:12:39;92.05;;;30.45;;
22603;SDS011;11469;49.024;8.246;2024-01-15T00:15:05;104.72;;;30.02;;
22603;SDS011;11469;49.024;8.246;2024-01-15T00:17:30;97.85;;;31.20;;
22603;SDS011;11469;49.024;8.246;2024-01-15T00:19:56;93.65;;;30.08;;
22603;SDS011;11469;49.024;8.246;2024-01-15T00:22:21;100.05;;;31.25;;
22603;SDS011;11469;49.024;8.246;2024-01-15T00:24:48;105.00;;;30.70;;
22603;SDS011;11469;49.024;8.246;2024-01-15T00:27:14;97.10;;;31.15;;
22603;SDS011;11469;49.024;8.246;2024-01-15T00:29:39;95.22;;;30.40;;
22603;SDS011;11469;49.024;8.246;2024-01-15T00:32:05;101.90;;;30.92;;
22603;SDS011;11469;49.024;8.246;2024-01-15T00:34:30;106.05;;;30.98;;
22603;SDS011;11469;49.024;8.246;2024-01-15T00:36:55;98.65;;;31.10;;
22603;SDS011;11469;49.024;8.246;2024-01-15T00:39:21;96.75;;;30.42;;
22603;SDS011;11469;49.024;8.246;2024-01-15T00:41:46;93.55;;;29.10;;
22603;SDS011;11469;49.024;8.246;2024-01-15T00:44:12;94.03;;;31.42;;
22603;SDS011;11469;49.024;8.246;2024-01-15T00:46:42;95.25;;;31.75;;
22603;SDS011;11469;49.024;8.246;2024-01-15T00:49:13;91.85;;;29.98;;
22603;SDS011;11469;49.024;8.246;2024-01-15T00:51:39;96.20;;;32.03;;
22603;SDS011;11469;49.024;8.246;2024-01-15T00:54:05;97.22;;;30.38;;
22603;SDS011;11469;49.024;8.246;2024-01-15T00:56:30;99.47;;;30.58;;
22603;SDS011;11469;49.024;8.246;2024-01-15T00:58:56;103.70;;;33.42;;
22603;SDS011;11469;49.024;8.246;2024-01-15T01:01:21;94.03;;;28.65;;
22603;SDS011;11469;49.024;8.246;2024-01-15T01:03:47;95.18;;;32.28;;
22603;SDS011;11469;49.024;8.246;2024-01-15T01:06:12;88.68;;;29.17;;
22603;SDS011;11469;49.024;8.246;2024-01-15T01:08:38;93.78;;;31.70;;
22603;SDS011;11469;49.024;8.246;2024-01-15T01:11:04;98.30;;;31.35;;
22603;SDS011;11469;49.024;8.246;2024-01-15T01:13:31;101.65;;;31.15;;
22603;SDS011;11469;49.024;8.246;2024-01-15T01:15:57;92.95;;;31.48;;
22603;SDS011;11469;49.024;8.246;2024-01-15T01:18:23;92.82;;;29.52;;
22603;SDS011;11469;49.024;8.246;2024-01-15T01:20:48;91.05;;;30.13;;
22603;SDS011;11469;49.024;8.246;2024-01-15T01:23:14;95.57;;;31.05;;
22603;SDS011;11469;49.024;8.246;2024-01-15T01:25:39;83.90;;;27.02;;
22603;SDS011;11469;49.024;8.246;2024-01-15T01:28:04;90.05;;;28.17;;
22603;SDS011;11469;49.024;8.246;2024-01-15T01:30:30;79.03;;;26.75;;
22603;SDS011;11469;49.024;8.246;2024-01-15T01:32:55;79.90;;;28.13;;
22603;SDS011;11469;49.024;8.246;2024-01-15T01:35:21;79.22;;;26.52;;
22603;SDS011;11469;49.024;8.246;2024-01-15T01:37:46;73.65;;;25.35;;
22603;SDS011;11469;49.024;8.246;2024-01-15T01:40:11;76.10;;;25.83;;
22603;SDS011;11469;49.024;8.246;2024-01-15T01:42:37;77.35;;;25.58;;
22603;SDS011;11469;49.024;8.246;2024-01-15T01:45:02;73.45;;;24.58;;
22603;SDS011;11469;49.024;8.246;2024-01-15T01:47:28;80.38;;;27.35;;
22603;SDS011;11469;49.024;8.246;2024-01-15T01:49:54;77.47;;;25.92;;
22603;SDS011;11469;49.024;8.246;2024-01-15T01:52:20;70.70;;;23.10;;
22603;SDS011;11469;49.024;8.246;2024-01-15T01:54:45;66.63;;;22.65;;
22603;SDS011;11469;49.024;8.246;2024-01-15T01:57:10;63.10;;;22.73;;
22603;SDS011;11469;49.024;8.246;2024-01-15T01:59:37;63.58;;;22.00;;
22603;SDS011;11469;49.024;8.246;2024-01-15T02:02:03;76.40;;;24.67;;
22603;SDS011;11469;49.024;8.246;2024-01-15T02:04:30;75.70;;;24.23;;
22603;SDS011;11469;49.024;8.246;2024-01-15T02:06:56;58.13;;;21.45;;
22603;SDS011;11469;49.024;8.246;2024-01-15T02:09:22;67.57;;;22.85;;
22603;SDS011;11469;49.024;8.246;2024-01-15T02:11:47;65.47;;;22.77;;
22603;SDS011;11469;49.024;8.246;2024-01-15T02:14:13;64.70;;;21.77;;
22603;SDS011;11469;49.024;8.246;2024-01-15T02:16:39;69.18;;;21.77;;
22603;SDS011;11469;49.024;8.246;2024-01-15T02:19:04;73.13;;;23.30;;
22603;SDS011;11469;49.024;8.246;2024-01-15T02:21:30;60.35;;;20.35;;
22603;SDS011;11469;49.024;8.246;2024-01-15T02:23:56;61.50;;;22.00;;
22603;SDS011;11469;49.024;8.246;2024-01-15T02:26:22;64.97;;;20.92;;
22603;SDS011;11469;49.024;8.246;2024-01-15T02:28:48;62.83;;;20.48;;
22603;SDS011;11469;49.024;8.246;2024-01-15T02:31:13;59.42;;;21.08;;
22603;SDS011;11469;49.024;8.246;2024-01-15T02:33:39;63.08;;;21.00;;
22603;SDS011;11469;49.024;8.246;2024-01-15T02:36:05;64.28;;;20.95;;
22603;SDS011;11469;49.024;8.246;2024-01-15T02:38:30;56.30;;;20.55;;
22603;SDS011;11469;49.024;8.246;2024-01-15T02:40:56;61.80;;;21.20;;
22603;SDS011;11469;49.024;8.246;2024-01-15T02:43:22;61.45;;;19.30;;
22603;SDS011;11469;49.024;8.246;2024-01-15T02:45:47;64.72;;;21.73;;
22603;SDS011;11469;49.024;8.246;2024-01-15T02:48:12;63.25;;;22.40;;
22603;SDS011;11469;49.024;8.246;2024-01-15T02:50:38;62.28;;;20.58;;
22603;SDS011;11469;49.024;8.246;2024-01-15T02:53:03;62.70;;;20.67;;
22603;SDS011;11469;49.024;8.246;2024-01-15T02:55:29;64.00;;;20.65;;
22603;SDS011;11469;49.024;8.246;2024-01-15T02:57:54;57.95;;;20.60;;
22603;SDS011;11469;49.024;8.246;2024-01-15T03:00:20;62.25;;;19.92;;
22603;SDS011;11469;49.024;8.246;2024-01-15T03:02:45;59.60;;;20.98;;
22603;SDS011;11469;49.024;8.246;2024-01-15T03:05:11;55.35;;;20.45;;
22603;SDS011;11469;49.024;8.246;2024-01-15T03:07:36;54.70;;;19.75;;
22603;SDS011;11469;49.024;8.246;2024-01-15T03:10:02;60.80;;;21.20;;
22603;SDS011;11469;49.024;8.246;2024-01-15T03:12:28;61.25;;;20.77;;
22603;SDS011;11469;49.024;8.246;2024-01-15T03:14:53;58.88;;;19.40;;
22603;SDS011;11469;49.024;8.246;2024-01-15T03:17:18;54.80;;;18.90;;
22603;SDS011;11469;49.024;8.246;2024-01-15T03:19:44;64.82;;;21.60;;
22603;SDS011;11469;49.024;8.246;2024-01-15T03:22:09;60.70;;;20.67;;
22603;SDS011;11469;49.024;8.246;2024-01-15T03:24:35;61.30;;;19.95;;
22603;SDS011;11469;49.024;8.246;2024-01-15T03:27:00;58.28;;;20.90;;
22603;SDS011;11469;49.024;8.246;2024-01-15T03:29:26;56.10;;;19.83;;
22603;SDS011;11469;49.024;8.246;2024-01-15T03:31:52;53.83;;;19.30;;
22603;SDS011;11469;49.024;8.246;2024-01-15T03:34:17;64.18;;;20.90;;
22603;SDS011;11469;49.024;8.246;2024-01-15T03:36:43;62.92;;;21.17;;
22603;SDS011;11469;49.024;8.246;2024-01-15T03:39:08;64.57;;;21.15;;
22603;SDS011;11469;49.024;8.246;2024-01-15T03:41:34;62.53;;;22.35;;
22603;SDS011;11469;49.024;8.246;2024-01-15T03:43:59;57.35;;;21.38;;
22603;SDS011;11469;49.024;8.246;2024-01-15T03:46:25;62.80;;;21.90;;
22603;SDS011;11469;49.024;8.246;2024-01-15T03:48:50;62.55;;;20.55;;
22603;SDS011;11469;49.024;8.246;2024-01-15T03:51:18;66.80;;;22.30;;
22603;SDS011;11469;49.024;8.246;2024-01-15T03:53:44;65.75;;;21.67;;
22603;SDS011;11469;49.024;8.246;2024-01-15T03:56:10;67.78;;;22.17;;
22603;SDS011;11469;49.024;8.246;2024-01-15T03:58:35;58.83;;;20.63;;
22603;SDS011;11469;49.024;8.246;2024-01-15T04:01:01;66.55;;;21.70;;
22603;SDS011;11469;49.024;8.246;2024-01-15T04:03:26;63.38;;;21.38;;
22603;SDS011;11469;49.024;8.246;2024-01-15T04:05:52;61.50;;;22.65;;
22603;SDS011;11469;49.024;8.246;2024-01-15T04:08:17;56.35;;;21.02;;
22603;SDS011;11469;49.024;8.246;2024-01-15T04:10:42;63.17;;;21.95;;
22603;SDS011;11469;49.024;8.246;2024-01-15T04:13:08;64.22;;;22.90;;
22603;SDS011;11469;49.024;8.246;2024-01-15T04:15:33;60.58;;;21.67;;
22603;SDS011;11469;49.024;8.246;2024-01-15T04:17:59;64.30;;;21.90;;
22603;SDS011;11469;49.024;8.246;2024-01-15T04:20:26;62.17;;;21.55;;
22603;SDS011;11469;49.024;8.246;2024-01-15T04:22:51;62.50;;;22.40;;
22603;SDS011;11469;49.024;8.246;2024-01-15T04:25:17;65.28;;;23.63;;
22603;SDS011;11469;49.024;8.246;2024-01-15T04:27:42;61.15;;;21.65;;
22603;SDS011;11469;49.024;8.246;2024-01-15T04:30:08;63.13;;;21.90;;
22603;SDS011;11469;49.024;8.246;2024-01-15T04:32:33;61.92;;;22.75;;
22603;SDS011;11469;49.024;8.246;2024-01-15T04:34:59;58.50;;;21.48;;
22603;SDS011;11469;49.024;8.246;2024-01-15T04:37:24;64.70;;;23.27;;
22603;SDS011;11469;49.024;8.246;2024-01-15T04:39:49;60.00;;;20.98;;
22603;SDS011;11469;49.024;8.246;2024-01-15T04:42:18;65.50;;;21.80;;
22603;SDS011;11469;49.024;8.246;2024-01-15T04:44:43;62.95;;;22.70;;
22603;SDS011;11469;49.024;8.246;2024-01-15T04:47:08;58.47;;;21.75;;
22603;SDS011;11469;49.024;8.246;2024-01-15T04:49:34;60.25;;;20.67;;
22603;SDS011;11469;49.024;8.246;2024-01-15T04:51:59;66.88;;;21.60;;
22603;SDS011;11469;49.024;8.246;2024-01-15T04:54:24;59.83;;;21.92;;
22603;SDS011;11469;49.024;8.246;2024-01-15T04:56:50;66.25;;;23.80;;
22603;SDS011;11469;49.024;8.246;2024-01-15T04:59:15;63.63;;;23.25;;
22603;SDS011;11469;49.024;8.246;2024-01-15T05:01:41;58.22;;;21.83;;
22603;SDS011;11469;49.024;8.246;2024-01-15T05:04:06;57.05;;;21.80;;
22603;SDS011;11469;49.024;8.246;2024-01-15T05:06:31;56.92;;;21.75;;
22603;SDS011;11469;49.024;8.246;2024-01-15T05:08:57;58.97;;;21.27;;
22603;SDS011;11469;49.024;8.246;2024-01-15T05:11:22;60.33;;;21.52;;
22603;SDS011;11469;49.024;8.246;2024-01-15T05:13:48;57.30;;;21.08;;
22603;SDS011;11469;49.024;8.246;2024-01-15T05:16:13;56.80;;;20.40;;
22603;SDS011;11469;49.024;8.246;2024-01-15T05:18:38;52.20;;;19.42;;
22603;SDS011;11469;49.024;8.246;2024-01-15T05:21:04;49.25;;;19.73;;
22603;SDS011;11469;49.024;8.246;2024-01-15T05:23:30;61.72;;;21.85;;
22603;SDS011;11469;49.024;8.246;2024-01-15T05:25:56;47.83;;;18.67;;
22603;SDS011;11469;49.024;8.246;2024-01-15T05:28:22;57.97;;;22.45;;
22603;SDS011;11469;49.024;8.246;2024-01-15T05:30:47;51.28;;;20.23;;
22603;SDS011;11469;49.024;8.246;2024-01-15T05:33:13;56.53;;;21.00;;
22603;SDS011;11469;49.024;8.246;2024-01-15T05:35:38;57.88;;;20.40;;
22603;SDS011;11469;49.024;8.246;2024-01-15T05:38:04;53.35;;;20.23;;
22603;SDS011;11469;49.024;8.246;2024-01-15T05:40:29;56.35;;;19.70;;
22603;SDS011;11469;49.024;8.246;2024-01-15T05:42:54;54.88;;;18.98;;
22603;SDS011;11469;49.024;8.246;2024-01-15T05:45:20;52.53;;;20.80;;
22603;SDS011;11469;49.024;8.246;2024-01-15T05:47:45;52.70;;;20.30;;
22603;SDS011;11469;49.024;8.246;2024-01-15T05:50:11;48.88;;;18.35;;
22603;SDS011;11469;49.024;8.246;2024-01-15T05:52:36;51.78;;;19.85;;
22603;SDS011;11469;49.024;8.246;2024-01-15T05:55:02;57.13;;;19.70;;
22603;SDS011;11469;49.024;8.246;2024-01-15T05:57:30;52.45;;;19.02;;
22603;SDS011;11469;49.024;8.246;2024-01-15T05:59:56;53.38;;;19.85;;
22603;SDS011;11469;49.024;8.246;2024-01-15T06:02:21;51.03;;;19.40;;
22603;SDS011;11469;49.024;8.246;2024-01-15T06:04:46;47.97;;;19.50;;
22603;SDS011;11469;49.024;8.246;2024-01-15T06:07:12;50.88;;;20.17;;
22603;SDS011;11469;49.024;8.246;2024-01-15T06:09:37;52.15;;;19.25;;
22603;SDS011;11469;49.024;8.246;2024-01-15T06:12:03;50.92;;;18.52;;
22603;SDS011;11469;49.024;8.246;2024-01-15T06:14:29;45.13;;;18.63;;
22603;SDS011;11469;49.024;8.246;2024-01-15T06:16:55;57.17;;;21.42;;
22603;SDS011;11469;49.024;8.246;2024-01-15T06:19:20;50.78;;;18.90;;
22603;SDS011;11469;49.024;8.246;2024-01-15T06:21:46;53.88;;;19.55;;
22603;SDS011;11469;49.024;8.246;2024-01-15T06:24:11;50.60;;;20.08;;
22603;SDS011;11469;49.024;8.246;2024-01-15T06:26:38;49.65;;;19.52;;
22603;SDS011;11469;49.024;8.246;2024-01-15T06:29:04;48.58;;;18.83;;
22603;SDS011;11469;49.024;8.246;2024-01-15T06:31:29;55.17;;;20.52;;
22603;SDS011;11469;49.024;8.246;2024-01-15T06:33:55;52.63;;;19.65;;
22603;SDS011;11469;49.024;8.246;2024-01-15T06:36:20;53.80;;;20.35;;
22603;SDS011;11469;49.024;8.246;2024-01-15T06:38:46;52.65;;;19.67;;
22603;SDS011;11469;49.024;8.246;2024-01-15T06:41:11;53.15;;;20.00;;
22603;SDS011;11469;49.024;8.246;2024-01-15T06:43:36;47.95;;;18.42;;
22603;SDS011;11469;49.024;8.246;2024-01-15T06:46:02;60.00;;;20.05;;
22603;SDS011;11469;49.024;8.246;2024-01-15T06:48:27;48.40;;;19.20;;
22603;SDS011;11469;49.024;8.246;2024-01-15T06:50:52;48.35;;;18.38;;
22603;SDS011;11469;49.024;8.246;2024-01-15T06:53:18;47.63;;;18.50;;
22603;SDS011;11469;49.024;8.246;2024-01-15T06:55:43;51.95;;;18.55;;
22603;SDS011;11469;49.024;8.246;2024-01-15T06:58:09;43.28;;;17.80;;
22603;SDS011;11469;49.024;8.246;2024-01-15T07:00:34;47.58;;;18.00;;
22603;SDS011;11469;49.024;8.246;2024-01-15T07:03:00;45.38;;;17.35;;
22603;SDS011;11469;49.024;8.246;2024-01-15T07:05:25;44.28;;;17.58;;
22603;SDS011;11469;49.024;8.246;2024-01-15T07:07:50;50.83;;;19.17;;
22603;SDS011;11469;49.024;8.246;2024-01-15T07:10:16;46.60;;;18.13;;
22603;SDS011;11469;49.024;8.246;2024-01-15T07:12:42;45.72;;;17.73;;
22603;SDS011;11469;49.024;8.246;2024-01-15T07:15:08;46.45;;;17.60;;
22603;SDS011;11469;49.024;8.246;2024-01-15T07:17:34;48.47;;;17.65;;
22603;SDS011;11469;49.024;8.246;2024-01-15T07:19:59;43.90;;;18.38;;
22603;SDS011;11469;49.024;8.246;2024-01-15T07:22:25;47.05;;;18.67;;
22603;SDS011;11469;49.024;8.246;2024-01-15T07:24:50;44.53;;;17.95;;
22603;SDS011;11469;49.024;8.246;2024-01-15T07:27:15;43.80;;;16.98;;
22603;SDS011;11469;49.024;8.246;2024-01-15T07:29:41;43.58;;;18.38;;
22603;SDS011;11469;49.024;8.246;2024-01-15T07:32:07;43.92;;;17.45;;
22603;SDS011;11469;49.024;8.246;2024-01-15T07:34:33;50.78;;;18.48;;
22603;SDS011;11469;49.024;8.246;2024-01-15T07:36:58;42.40;;;16.65;;
22603;SDS011;11469;49.024;8.246;2024-01-15T07:39:24;45.70;;;16.90;;
22603;SDS011;11469;49.024;8.246;2024-01-15T07:41:53;43.10;;;17.83;;
22603;SDS011;11469;49.024;8.246;2024-01-15T07:44:18;43.80;;;17.38;;
22603;SDS011;11469;49.024;8.246;2024-01-15T07:46:44;45.47;;;18.63;;
22603;SDS011;11469;49.024;8.246;2024-01-15T07:49:10;47.22;;;16.13;;
22603;SDS011;11469;49.024;8.246;2024-01-15T07:51:36;45.88;;;17.33;;
22603;SDS011;11469;49.024;8.246;2024-01-15T07:54:01;44.15;;;17.30;;
22603;SDS011;11469;49.024;8.246;2024-01-15T07:56:27;39.38;;;15.73;;
22603;SDS011;11469;49.024;8.246;2024-01-15T07:58:52;39.90;;;15.32;;
22603;SDS011;11469;49.024;8.246;2024-01-15T08:01:18;39.92;;;16.83;;
22603;SDS011;11469;49.024;8.246;2024-01-15T08:03:43;41.22;;;16.42;;
22603;SDS011;11469;49.024;8.246;2024-01-15T08:06:08;37.97;;;16.15;;
22603;SDS011;11469;49.024;8.246;2024-01-15T08:08:35;36.58;;;16.35;;
22603;SDS011;11469;49.024;8.246;2024-01-15T08:11:00;46.05;;;17.20;;
22603;SDS011;11469;49.024;8.246;2024-01-15T08:13:26;41.00;;;16.05;;
22603;SDS011;11469;49.024;8.246;2024-01-15T08:15:52;43.35;;;16.83;;
22603;SDS011;11469;49.024;8.246;2024-01-15T08:18:17;46.70;;;16.27;;
22603;SDS011;11469;49.024;8.246;2024-01-15T08:20:42;45.47;;;17.23;;
22603;SDS011;11469;49.024;8.246;2024-01-15T08:23:08;44.83;;;17.52;;
22603;SDS011;11469;49.024;8.246;2024-01-15T08:25:34;45.92;;;18.25;;
22603;SDS011;11469;49.024;8.246;2024-01-15T08:28:00;47.28;;;17.17;;
22603;SDS011;11469;49.024;8.246;2024-01-15T08:30:25;43.33;;;17.98;;
22603;SDS011;11469;49.024;8.246;2024-01-15T08:32:53;50.22;;;18.15;;
22603;SDS011;11469;49.024;8.246;2024-01-15T08:35:19;45.33;;;18.30;;
22603;SDS011;11469;49.024;8.246;2024-01-15T08:37:48;46.90;;;18.67;;
22603;SDS011;11469;49.024;8.246;2024-01-15T08:40:14;50.40;;;19.58;;
22603;SDS011;11469;49.024;8.246;2024-01-15T08:42:40;47.70;;;17.95;;
22603;SDS011;11469;49.024;8.246;2024-01-15T08:45:06;51.08;;;19.05;;
22603;SDS011;11469;49.024;8.246;2024-01-15T08:47:32;46.35;;;18.20;;
22603;SDS011;11469;49.024;8.246;2024-01-15T08:49:57;42.35;;;17.65;;
22603;SDS011;11469;49.024;8.246;2024-01-15T08:52:24;46.13;;;18.02;;
22603;SDS011;11469;49.024;8.246;2024-01-15T08:54:49;44.30;;;18.55;;
22603;SDS011;11469;49.024;8.246;2024-01-15T08:57:15;46.25;;;17.50;;
22603;SDS011;11469;49.024;8.246;2024-01-15T08:59:41;44.25;;;18.23;;
22603;SDS011;11469;49.024;8.246;2024-01-15T09:02:06;43.83;;;17.65;;
22603;SDS011;11469;49.024;8.246;2024-01-15T09:04:32;51.35;;;17.50;;
22603;SDS011;11469;49.024;8.246;2024-01-15T09:06:58;45.03;;;18.63;;
22603;SDS011;11469;49.024;8.246;2024-01-15T09:09:23;51.03;;;20.55;;
22603;SDS011;11469;49.024;8.246;2024-01-15T09:11:49;52.13;;;19.15;;
22603;SDS011;11469;49.024;8.246;2024-01-15T09:14:15;56.15;;;20.95;;
22603;SDS011;11469;49.024;8.246;2024-01-15T09:16:40;56.22;;;21.80;;
22603;SDS011;11469;49.024;8.246;2024-01-15T09:19:06;53.63;;;22.33;;
22603;SDS011;11469;49.024;8.246;2024-01-15T09:21:31;54.85;;;22.38;;
22603;SDS011;11469;49.024;8.246;2024-01-15T09:23:57;53.67;;;22.60;;
22603;SDS011;11469;49.024;8.246;2024-01-15T09:26:23;58.50;;;23.20;;
22603;SDS011;11469;49.024;8.246;2024-01-15T09:28:49;65.10;;;25.13;;
22603;SDS011;11469;49.024;8.246;2024-01-15T09:31:14;59.75;;;24.17;;
22603;SDS011;11469;49.024;8.246;2024-01-15T09:33:40;54.72;;;20.95;;
22603;SDS011;11469;49.024;8.246;2024-01-15T09:36:05;61.42;;;25.13;;
22603;SDS011;11469;49.024;8.246;2024-01-15T09:38:31;54.72;;;22.02;;
22603;SDS011;11469;49.024;8.246;2024-01-15T09:40:56;51.35;;;21.02;;
22603;SDS011;11469;49.024;8.246;2024-01-15T09:43:22;54.08;;;23.45;;
22603;SDS011;11469;49.024;8.246;2024-01-15T09:45:47;51.95;;;20.58;;
22603;SDS011;11469;49.024;8.246;2024-01-15T09:48:15;51.72;;;20.70;;
22603;SDS011;11469;49.024;8.246;2024-01-15T09:50:41;56.00;;;21.60;;
22603;SDS011;11469;49.024;8.246;2024-01-15T09:53:07;50.65;;;21.55;;
22603;SDS011;11469;49.024;8.246;2024-01-15T09:55:34;54.47;;;21.35;;
22603;SDS011;11469;49.024;8.246;2024-01-15T09:58:02;49.47;;;20.77;;
22603;SDS011;11469;49.024;8.246;2024-01-15T10:00:28;52.33;;;21.55;;
22603;SDS011;11469;49.024;8.246;2024-01-15T10:02:56;51.22;;;20.38;;
22603;SDS011;11469;49.024;8.246;2024-01-15T10:05:23;51.30;;;21.45;;
22603;SDS011;11469;49.024;8.246;2024-01-15T10:07:48;50.70;;;20.55;;
22603;SDS011;11469;49.024;8.246;2024-01-15T10:10:15;48.35;;;19.58;;
22603;SDS011;11469;49.024;8.246;2024-01-15T10:12:41;49.88;;;21.02;;
22603;SDS011;11469;49.024;8.246;2024-01-15T10:15:09;55.38;;;21.92;;
22603;SDS011;11469;49.024;8.246;2024-01-15T10:17:36;55.58;;;22.45;;
22603;SDS011;11469;49.024;8.246;2024-01-15T10:20:06;58.03;;;21.55;;
22603;SDS011;11469;49.024;8.246;2024-01-15T10:22:34;53.22;;;21.00;;
22603;SDS011;11469;49.024;8.246;2024-01-15T10:25:03;53.15;;;21.35;;
22603;SDS011;11469;49.024;8.246;2024-01-15T10:27:29;60.03;;;21.77;;
22603;SDS011;11469;49.024;8.246;2024-01-15T10:29:54;60.88;;;23.23;;
22603;SDS011;11469;49.024;8.246;2024-01-15T10:32:25;56.40;;;23.98;;
22603;SDS011;11469;49.024;8.246;2024-01-15T10:34:52;57.30;;;22.77;;
22603;SDS011;11469;49.024;8.246;2024-01-15T10:37:18;67.32;;;25.55;;
22603;SDS011;11469;49.024;8.246;2024-01-15T10:39:43;63.92;;;23.17;;
22603;SDS011;11469;49.024;8.246;2024-01-15T10:42:09;62.08;;;23.70;;
22603;SDS011;11469;49.024;8.246;2024-01-15T10:44:35;60.67;;;24.92;;
22603;SDS011;11469;49.024;8.246;2024-01-15T10:47:00;69.90;;;28.08;;
22603;SDS011;11469;49.024;8.246;2024-01-15T10:49:26;66.18;;;26.77;;
22603;SDS011;11469;49.024;8.246;2024-01-15T10:51:53;72.78;;;25.08;;
22603;SDS011;11469;49.024;8.246;2024-01-15T10:54:19;67.40;;;25.50;;
22603;SDS011;11469;49.024;8.246;2024-01-15T10:56:46;71.25;;;26.85;;
22603;SDS011;11469;49.024;8.246;2024-01-15T10:59:12;67.03;;;25.45;;
22603;SDS011;11469;49.024;8.246;2024-01-15T11:01:38;69.45;;;25.38;;
22603;SDS011;11469;49.024;8.246;2024-01-15T11:04:04;61.92;;;23.65;;
22603;SDS011;11469;49.024;8.246;2024-01-15T11:06:40;69.03;;;24.38;;
22603;SDS011;11469;49.024;8.246;2024-01-15T11:09:07;63.78;;;24.10;;
22603;SDS011;11469;49.024;8.246;2024-01-15T11:11:35;64.40;;;23.23;;
22603;SDS011;11469;49.024;8.246;2024-01-15T11:14:01;65.88;;;23.70;;
22603;SDS011;11469;49.024;8.246;2024-01-15T11:16:28;66.10;;;24.63;;
22603;SDS011;11469;49.024;8.246;2024-01-15T11:19:18;56.40;;;21.00;;
22603;SDS011;11469;49.024;8.246;2024-01-15T11:21:44;61.05;;;22.10;;
22603;SDS011;11469;49.024;8.246;2024-01-15T11:24:09;71.32;;;23.70;;
22603;SDS011;11469;49.024;8.246;2024-01-15T11:26:38;53.40;;;20.85;;
22603;SDS011;11469;49.024;8.246;2024-01-15T11:29:29;57.55;;;21.15;;
22603;SDS011;11469;49.024;8.246;2024-01-15T11:32:00;59.05;;;21.10;;
22603;SDS011;11469;49.024;8.246;2024-01-15T11:37:26;54.20;;;21.85;;
22603;SDS011;11469;49.024;8.246;2024-01-15T11:39:56;62.65;;;21.88;;
22603;SDS011;11469;49.024;8.246;2024-01-15T11:42:28;48.75;;;19.92;;
22603;SDS011;11469;49.024;8.246;2024-01-15T11:44:54;65.30;;;27.23;;
22603;SDS011;11469;49.024;8.246;2024-01-15T11:47:27;51.58;;;20.83;;
22603;SDS011;11469;49.024;8.246;2024-01-15T11:50:13;55.25;;;21.35;;
22603;SDS011;11469;49.024;8.246;2024-01-15T11:52:39;49.78;;;20.60;;
22603;SDS011;11469;49.024;8.246;2024-01-15T11:55:19;59.38;;;21.83;;
22603;SDS011;11469;49.024;8.246;2024-01-15T11:57:52;51.38;;;20.83;;
22603;SDS011;11469;49.024;8.246;2024-01-15T12:00:21;61.70;;;20.98;;
22603;SDS011;11469;49.024;8.246;2024-01-15T12:02:48;49.78;;;21.13;;
22603;SDS011;11469;49.024;8.246;2024-01-15T12:05:16;51.47;;;21.52;;
22603;SDS011;11469;49.024;8.246;2024-01-15T12:07:43;51.65;;;21.25;;
22603;SDS011;11469;49.024;8.246;2024-01-15T12:10:10;56.90;;;21.45;;
22603;SDS011;11469;49.024;8.246;2024-01-15T12:15:09;65.57;;;23.63;;
22603;SDS011;11469;49.024;8.246;2024-01-15T12:17:34;50.75;;;21.40;;
22603;SDS011;11469;49.024;8.246;2024-01-15T12:20:00;50.25;;;20.13;;
22603;SDS011;11469;49.024;8.246;2024-01-15T12:22:26;44.55;;;19.00;;
22603;SDS011;11469;49.024;8.246;2024-01-15T12:24:53;45.58;;;18.38;;
22603;SDS011;11469;49.024;8.246;2024-01-15T12:27:19;44.25;;;18.98;;
22603;SDS011;11469;49.024;8.246;2024-01-15T12:29:45;46.55;;;18.00;;
22603;SDS011;11469;49.024;8.246;2024-01-15T12:32:12;45.28;;;18.85;;
22603;SDS011;11469;49.024;8.246;2024-01-15T12:34:37;38.08;;;16.25;;
22603;SDS011;11469;49.024;8.246;2024-01-15T12:37:03;43.65;;;17.63;;
22603;SDS011;11469;49.024;8.246;2024-01-15T12:39:28;39.25;;;15.25;;
22603;SDS011;11469;49.024;8.246;2024-01-15T12:41:54;32.95;;;15.82;;
22603;SDS011;11469;49.024;8.246;2024-01-15T12:44:20;40.00;;;16.55;;
22603;SDS011;11469;49.024;8.246;2024-01-15T12:46:45;35.05;;;15.13;;
22603;SDS011;11469;49.024;8.246;2024-01-15T12:49:12;35.22;;;14.18;;
22603;SDS011;11469;49.024;8.246;2024-01-15T12:51:38;34.67;;;16.77;;
22603;SDS011;11469;49.024;8.246;2024-01-15T12:54:04;37.58;;;16.88;;
22603;SDS011;11469;49.024;8.246;2024-01-15T12:56:29;38.40;;;15.93;;
22603;SDS011;11469;49.024;8.246;2024-01-15T12:58:55;34.85;;;16.02;;
22603;SDS011;11469;49.024;8.246;2024-01-15T13:01:20;40.20;;;17.42;;
22603;SDS011;11469;49.024;8.246;2024-01-15T13:03:46;37.30;;;17.95;;
22603;SDS011;11469;49.024;8.246;2024-01-15T13:06:12;45.47;;;21.50;;
22603;SDS011;11469;49.024;8.246;2024-01-15T13:08:37;40.97;;;18.38;;
22603;SDS011;11469;49.024;8.246;2024-01-15T13:11:03;33.95;;;16.73;;
22603;SDS011;11469;49.024;8.246;2024-01-15T13:13:28;27.75;;;13.77;;
22603;SDS011;11469;49.024;8.246;2024-01-15T13:15:55;30.02;;;13.80;;
22603;SDS011;11469;49.024;8.246;2024-01-15T13:18:21;39.25;;;15.75;;
22603;SDS011;11469;49.024;8.246;2024-01-15T13:20:46;36.33;;;16.42;;
22603;SDS011;11469;49.024;8.246;2024-01-15T13:23:12;34.60;;;15.20;;
22603;SDS011;11469;49.024;8.246;2024-01-15T13:25:37;37.08;;;17.25;;
22603;SDS011;11469;49.024;8.246;2024-01-15T13:28:04;29.05;;;12.45;;
22603;SDS011;11469;49.024;8.246;2024-01-15T13:30:30;33.80;;;15.23;;
22603;SDS011;11469;49.024;8.246;2024-01-15T13:32:56;28.20;;;13.55;;
22603;SDS011;11469;49.024;8.246;2024-01-15T13:35:23;25.65;;;12.15;;
22603;SDS011;11469;49.024;8.246;2024-01-15T13:37:48;26.15;;;12.60;;
22603;SDS011;11469;49.024;8.246;2024-01-15T13:40:13;27.80;;;12.23;;
22603;SDS011;11469;49.024;8.246;2024-01-15T13:42:45;22.98;;;11.80;;
22603;SDS011;11469;49.024;8.246;2024-01-15T13:45:11;30.30;;;13.65;;
22603;SDS011;11469;49.024;8.246;2024-01-15T13:47:39;27.67;;;13.50;;
22603;SDS011;11469;49.024;8.246;2024-01-15T13:50:09;26.70;;;13.88;;
22603;SDS011;11469;49.024;8.246;2024-01-15T13:52:34;33.15;;;14.30;;
22603;SDS011;11469;49.024;8.246;2024-01-15T13:55:00;28.75;;;13.32;;
22603;SDS011;11469;49.024;8.246;2024-01-15T13:57:25;27.85;;;12.88;;
22603;SDS011;11469;49.024;8.246;2024-01-15T13:59:51;24.27;;;12.45;;
22603;SDS011;11469;49.024;8.246;2024-01-15T14:02:16;24.05;;;12.90;;
22603;SDS011;11469;49.024;8.246;2024-01-15T14:04:42;24.77;;;12.70;;
22603;SDS011;11469;49.024;8.246;2024-01-15T14:07:07;30.50;;;14.30;;
22603;SDS011;11469;49.024;8.246;2024-01-15T14:09:33;22.42;;;12.30;;
22603;SDS011;11469;49.024;8.246;2024-01-15T14:11:58;28.35;;;13.95;;
22603;SDS011;11469;49.024;8.246;2024-01-15T14:14:24;25.05;;;12.82;;
22603;SDS011;11469;49.024;8.246;2024-01-15T14:16:49;25.15;;;12.73;;
22603;SDS011;11469;49.024;8.246;2024-01-15T14:19:15;27.75;;;12.75;;